Alpa Corral, Argentina
Current Conditions -  °F | °C
As of 10:00 PM on Saturday 25 Oct 2014 (Local Time) from SAOC Reporting Station
Clear Clear  
Wind Chill: 79°   Ceiling: Unl
Heat Index: 79°   Visibility: 6mi
Dew Point: 50°   Wind: 21mph
Humidity: 36%   Direction: 360°N
Pressure: 29.8"   Gusts: NA
Location:  32.68°S, 64.73°W
Report Text: SAOC 260100Z 36018KT CAVOK 26/10 Q1009
Loading
Personal Weather Stations






























Interactive Weather Map
Tropical Storm Tracking
New forecast layout! Learn more

10-Day Weather Forecast

Advertisements
Track Severe Weather on mobile